createdAt,value
2023-03-06T00:01:10.723Z,12.25
2023-03-06T00:03:38.839Z,13.32
2023-03-06T00:06:07.556Z,12.40
2023-03-06T00:08:35.631Z,12.68
2023-03-06T00:11:03.585Z,13.40
2023-03-06T00:13:32.216Z,13.23
2023-03-06T00:16:01.679Z,13.80
2023-03-06T00:18:31.147Z,13.07
2023-03-06T00:20:59.139Z,13.48
2023-03-06T00:23:28.054Z,12.98
2023-03-06T00:25:56.094Z,13.75
2023-03-06T00:28:24.280Z,13.05
2023-03-06T00:30:52.351Z,14.18
2023-03-06T00:33:20.400Z,14.20
2023-03-06T00:35:49.741Z,13.77
2023-03-06T00:38:17.813Z,13.57
2023-03-06T00:40:45.991Z,12.70
2023-03-06T00:43:14.438Z,13.23
2023-03-06T00:45:42.577Z,12.90
2023-03-06T00:48:10.725Z,12.07
2023-03-06T00:50:38.782Z,12.75
2023-03-06T00:53:11.116Z,12.25
2023-03-06T00:55:39.115Z,13.07
2023-03-06T00:58:07.153Z,12.77
2023-03-06T01:00:35.191Z,12.95
2023-03-06T01:03:03.531Z,13.85
2023-03-06T01:05:32.158Z,13.38
2023-03-06T01:08:00.277Z,14.00
2023-03-06T01:10:29.798Z,14.15
2023-03-06T01:12:58.016Z,14.63
2023-03-06T01:15:26.780Z,14.55
2023-03-06T01:17:55.170Z,15.27
2023-03-06T01:20:23.517Z,14.93
2023-03-06T01:22:51.602Z,14.63
2023-03-06T01:25:19.678Z,14.60
2023-03-06T01:27:49.147Z,14.70
2023-03-06T01:30:17.369Z,16.10
2023-03-06T01:32:45.447Z,14.77
2023-03-06T01:35:14.176Z,14.57
2023-03-06T01:37:43.027Z,14.45
2023-03-06T01:40:13.502Z,14.57
2023-03-06T01:42:42.505Z,13.50
2023-03-06T01:45:43.748Z,14.07
2023-03-06T01:48:13.696Z,12.70
2023-03-06T01:50:42.100Z,13.00
2023-03-06T01:53:10.454Z,13.50
2023-03-06T01:55:38.717Z,12.93
2023-03-06T01:58:10.077Z,12.57
2023-03-06T02:00:38.418Z,13.85
2023-03-06T02:03:11.077Z,12.25
2023-03-06T02:05:42.656Z,13.57
2023-03-06T02:08:11.947Z,13.05
2023-03-06T02:10:43.547Z,13.18
2023-03-06T02:13:11.703Z,13.00
2023-03-06T02:15:40.196Z,13.07
2023-03-06T02:18:08.458Z,12.48
2023-03-06T02:20:44.871Z,11.98
2023-03-06T02:23:21.192Z,13.18
2023-03-06T02:25:52.580Z,12.93
2023-03-06T02:28:23.187Z,12.45
2023-03-06T02:30:53.510Z,12.90
2023-03-06T02:33:24.266Z,12.93
2023-03-06T02:35:55.165Z,13.55
2023-03-06T02:38:26.462Z,13.57
2023-03-06T02:40:58.063Z,14.52
2023-03-06T02:43:30.730Z,13.77
2023-03-06T02:45:59.099Z,13.80
2023-03-06T02:48:27.272Z,12.15
2023-03-06T02:50:55.364Z,14.38
2023-03-06T02:53:23.747Z,14.35
2023-03-06T02:55:52.335Z,14.82
2023-03-06T02:58:21.874Z,14.35
2023-03-06T03:00:50.615Z,12.93
2023-03-06T03:03:19.177Z,14.82
2023-03-06T03:05:47.223Z,14.40
2023-03-06T03:08:15.265Z,13.65
2023-03-06T03:10:43.319Z,14.25
2023-03-06T03:13:11.410Z,14.80
2023-03-06T03:15:41.300Z,15.15
2023-03-06T03:18:10.338Z,14.80
2023-03-06T03:20:38.404Z,15.57
2023-03-06T03:23:06.424Z,14.07
2023-03-06T03:25:34.445Z,14.80
2023-03-06T03:28:02.624Z,14.25
2023-03-06T03:30:32.147Z,14.93
2023-03-06T03:33:01.562Z,15.48
2023-03-06T03:35:29.722Z,17.17
2023-03-06T03:37:57.842Z,15.13
2023-03-06T03:40:25.860Z,16.13
2023-03-06T03:42:54.022Z,15.07
2023-03-06T03:45:22.258Z,14.75
2023-03-06T03:47:50.308Z,14.07
2023-03-06T03:50:20.322Z,14.48
2023-03-06T03:52:48.296Z,13.95
2023-03-06T03:55:16.341Z,12.88
2023-03-06T03:57:44.491Z,13.70
2023-03-06T04:00:16.396Z,13.00
2023-03-06T04:02:45.190Z,13.60
2023-03-06T04:05:15.021Z,14.13
2023-03-06T04:07:44.878Z,13.85
2023-03-06T04:10:14.010Z,12.73
2023-03-06T04:12:42.265Z,13.48
2023-03-06T04:15:11.177Z,14.05
2023-03-06T04:17:39.189Z,13.50
2023-03-06T04:20:08.397Z,13.82
2023-03-06T04:22:36.381Z,14.50
2023-03-06T04:25:06.665Z,14.52
2023-03-06T04:27:34.757Z,15.00
2023-03-06T04:30:02.845Z,15.27
2023-03-06T04:32:30.991Z,14.13
2023-03-06T04:34:59.230Z,13.73
2023-03-06T04:37:27.644Z,14.77
2023-03-06T04:39:55.921Z,14.27
2023-03-06T04:42:25.400Z,15.23
2023-03-06T04:44:53.500Z,14.18
2023-03-06T04:47:21.644Z,14.68
2023-03-06T04:49:49.788Z,13.25
2023-03-06T04:52:17.923Z,14.25
2023-03-06T04:54:46.484Z,14.45
2023-03-06T04:57:15.169Z,15.05
2023-03-06T04:59:44.638Z,14.35
2023-03-06T05:02:12.644Z,15.13
2023-03-06T05:04:40.807Z,13.88
2023-03-06T05:07:08.933Z,14.85
2023-03-06T05:09:39.169Z,15.27
2023-03-06T05:12:07.706Z,15.10
2023-03-06T05:14:35.822Z,14.27
2023-03-06T05:17:05.250Z,14.35
2023-03-06T05:19:33.307Z,15.27
2023-03-06T05:22:01.375Z,15.75
2023-03-06T05:24:29.618Z,14.75
2023-03-06T05:26:57.685Z,15.20
2023-03-06T05:29:25.785Z,16.58
2023-03-06T05:31:54.013Z,15.60
2023-03-06T05:34:23.831Z,15.80
2023-03-06T05:36:51.943Z,15.07
2023-03-06T05:39:20.065Z,15.23
2023-03-06T05:41:48.035Z,15.32
2023-03-06T05:44:16.065Z,15.43
2023-03-06T05:46:44.016Z,16.60
2023-03-06T05:49:12.109Z,15.73
2023-03-06T05:51:41.534Z,16.83
2023-03-06T05:54:09.601Z,15.68
2023-03-06T05:56:37.749Z,16.15
2023-03-06T05:59:05.777Z,16.02
2023-03-06T06:01:33.745Z,17.38
2023-03-06T06:04:01.839Z,17.63
2023-03-06T06:06:29.879Z,17.08
2023-03-06T06:08:59.333Z,18.98
2023-03-06T06:11:27.328Z,16.52
2023-03-06T06:13:55.270Z,18.17
2023-03-06T06:16:23.384Z,17.02
2023-03-06T06:18:51.423Z,16.55
2023-03-06T06:21:19.512Z,16.35
2023-03-06T06:23:47.935Z,15.93
2023-03-06T06:26:17.517Z,15.13
2023-03-06T06:28:45.572Z,15.45
2023-03-06T06:31:14.573Z,14.93
2023-03-06T06:33:43.193Z,15.57
2023-03-06T06:36:19.156Z,15.25
2023-03-06T06:38:47.255Z,16.30
2023-03-06T06:44:08.597Z,14.60
2023-03-06T06:47:20.644Z,14.32
2023-03-06T06:49:25.496Z,13.80
2023-03-06T06:51:53.524Z,15.52
2023-03-06T06:54:22.390Z,14.88
2023-03-06T06:56:50.496Z,15.55
2023-03-06T06:59:20.309Z,16.95
2023-03-06T07:01:48.418Z,15.82
2023-03-06T07:04:18.101Z,17.63
2023-03-06T07:06:47.505Z,17.08
2023-03-06T07:09:16.247Z,16.30
2023-03-06T07:11:44.243Z,16.48
2023-03-06T07:14:12.338Z,18.13
2023-03-06T07:16:41.728Z,18.13
2023-03-06T07:19:09.961Z,19.17
2023-03-06T07:21:37.995Z,19.25
2023-03-06T07:24:06.501Z,16.30
2023-03-06T07:26:34.991Z,17.75
2023-03-06T07:29:03.769Z,17.42
2023-03-06T07:31:31.958Z,16.42
2023-03-06T07:34:03.875Z,18.02
2023-03-06T07:36:33.376Z,17.50
2023-03-06T07:39:01.728Z,18.00
2023-03-06T07:41:29.810Z,18.40
2023-03-06T07:43:57.881Z,18.33
2023-03-06T07:46:25.902Z,17.70
2023-03-06T07:48:54.264Z,18.17
2023-03-06T07:51:24.033Z,16.80
2023-03-06T07:53:52.080Z,17.17
2023-03-06T07:56:20.263Z,14.38
2023-03-06T07:58:49.016Z,14.68
2023-03-06T08:01:19.906Z,14.35
2023-03-06T08:03:50.087Z,14.43
2023-03-06T08:06:20.262Z,14.93
2023-03-06T08:08:52.497Z,14.70
2023-03-06T08:11:22.568Z,13.70
2023-03-06T08:13:52.816Z,13.25
2023-03-06T08:16:21.537Z,14.00
2023-03-06T08:18:49.818Z,12.10
2023-03-06T08:21:20.195Z,13.05
2023-03-06T08:23:49.734Z,11.18
2023-03-06T08:26:20.082Z,11.88
2023-03-06T08:28:48.747Z,10.35
2023-03-06T08:31:26.166Z,10.80
2023-03-06T08:33:54.651Z,11.70
2023-03-06T08:36:23.966Z,10.55
2023-03-06T08:38:53.723Z,10.57
2023-03-06T08:41:22.720Z,10.55
2023-03-06T08:43:51.729Z,9.27
2023-03-06T08:46:21.394Z,9.60
2023-03-06T08:48:49.499Z,10.27
2023-03-06T08:51:18.005Z,8.75
2023-03-06T08:53:46.331Z,8.80
2023-03-06T08:56:20.482Z,9.68
2023-03-06T08:58:48.985Z,8.47
2023-03-06T09:01:18.264Z,8.75
2023-03-06T09:03:47.054Z,8.98
2023-03-06T09:06:15.648Z,9.07
2023-03-06T09:08:44.787Z,9.77
2023-03-06T09:11:14.155Z,10.93
2023-03-06T09:13:44.517Z,11.07
2023-03-06T09:16:13.536Z,9.48
2023-03-06T09:18:41.973Z,8.88
2023-03-06T09:21:11.021Z,10.43
2023-03-06T09:23:40.580Z,10.13
2023-03-06T09:26:09.068Z,9.30
2023-03-06T09:28:40.631Z,9.20
2023-03-06T09:31:11.376Z,9.45
2023-03-06T09:33:40.221Z,9.05
2023-03-06T09:36:09.941Z,10.57
2023-03-06T09:38:37.973Z,7.78
2023-03-06T09:41:10.279Z,9.13
2023-03-06T09:43:43.507Z,8.23
2023-03-06T09:46:24.321Z,8.18
2023-03-06T09:49:10.519Z,9.40
2023-03-06T09:51:50.979Z,7.82
2023-03-06T09:54:28.053Z,7.85
2023-03-06T09:56:56.204Z,8.38
2023-03-06T09:59:27.664Z,7.38
2023-03-06T10:02:10.199Z,7.72
2023-03-06T10:04:42.022Z,7.68
2023-03-06T10:07:15.934Z,8.30
2023-03-06T10:09:48.532Z,8.32
2023-03-06T10:12:25.013Z,9.68
2023-03-06T10:15:08.158Z,8.25
2023-03-06T10:17:43.271Z,8.30
2023-03-06T10:20:18.780Z,9.00
2023-03-06T10:23:01.238Z,9.30
2023-03-06T10:25:34.498Z,8.65
2023-03-06T10:28:14.119Z,8.85
2023-03-06T10:30:47.734Z,7.90
2023-03-06T10:33:24.820Z,9.07
2023-03-06T10:35:55.244Z,7.82
2023-03-06T10:38:25.149Z,9.13
2023-03-06T10:41:05.436Z,8.13
2023-03-06T10:43:36.172Z,8.60
2023-03-06T10:46:05.143Z,9.32
2023-03-06T10:48:38.138Z,8.23
2023-03-06T10:51:19.405Z,9.15
2023-03-06T10:53:56.490Z,8.73
2023-03-06T10:56:30.319Z,8.68
2023-03-06T10:59:07.841Z,8.98
2023-03-06T11:01:36.084Z,8.48
2023-03-06T11:04:23.084Z,9.95
2023-03-06T11:07:06.681Z,9.07
2023-03-06T11:09:35.334Z,8.98
2023-03-06T11:12:23.360Z,9.23
2023-03-06T11:15:21.110Z,8.68
2023-03-06T11:17:58.848Z,9.55
2023-03-06T11:20:48.470Z,8.02
2023-03-06T11:23:22.765Z,8.73
2023-03-06T11:25:57.489Z,8.30
2023-03-06T11:28:29.733Z,8.07
2023-03-06T11:31:03.093Z,8.13
2023-03-06T11:33:36.792Z,7.65
2023-03-06T11:36:15.690Z,8.57
2023-03-06T11:38:50.087Z,7.72
2023-03-06T11:41:32.405Z,8.98
2023-03-06T11:44:13.788Z,8.55
2023-03-06T11:46:48.818Z,9.38
2023-03-06T11:49:23.972Z,8.75
2023-03-06T11:51:56.590Z,8.38
2023-03-06T11:54:24.830Z,8.82
2023-03-06T11:56:58.699Z,8.70
2023-03-06T11:59:45.969Z,7.97
2023-03-06T12:02:26.532Z,8.82
2023-03-06T12:05:02.972Z,8.07
2023-03-06T12:07:34.915Z,8.75
2023-03-06T12:10:18.455Z,8.20
2023-03-06T12:13:06.847Z,8.85
2023-03-06T12:15:50.387Z,8.05
2023-03-06T12:18:36.308Z,8.65
2023-03-06T12:21:11.103Z,8.80
2023-03-06T12:24:04.190Z,8.07
2023-03-06T12:26:53.469Z,8.70
2023-03-06T12:29:37.495Z,8.50
2023-03-06T12:32:16.913Z,8.25
2023-03-06T12:35:17.651Z,8.38
2023-03-06T12:37:59.444Z,7.88
2023-03-06T12:40:43.372Z,8.80
2023-03-06T12:43:34.732Z,8.32
2023-03-06T12:46:09.693Z,8.70
2023-03-06T12:51:08.973Z,8.13
2023-03-06T12:53:38.525Z,8.35
2023-03-06T12:56:08.977Z,8.90
2023-03-06T12:58:52.281Z,8.93
2023-03-06T13:01:58.032Z,8.32
2023-03-06T13:05:01.414Z,8.52
2023-03-06T13:07:55.659Z,7.70
2023-03-06T13:10:27.884Z,9.35
2023-03-06T13:13:01.042Z,8.05
2023-03-06T13:15:36.787Z,8.60
2023-03-06T13:18:56.890Z,8.57
2023-03-06T13:22:10.570Z,8.63
2023-03-06T13:24:38.871Z,8.80
2023-03-06T13:27:09.920Z,8.50
2023-03-06T13:30:08.261Z,7.97
2023-03-06T13:32:37.371Z,7.85
2023-03-06T13:35:53.186Z,8.38
2023-03-06T13:39:01.225Z,8.30
2023-03-06T13:41:54.478Z,8.18
2023-03-06T13:44:51.147Z,8.48
2023-03-06T13:48:06.545Z,8.43
2023-03-06T13:50:41.131Z,8.43
2023-03-06T13:53:33.080Z,8.30
2023-03-06T13:56:14.819Z,7.43
2023-03-06T13:59:04.410Z,8.98
2023-03-06T14:01:49.997Z,9.60
2023-03-06T14:04:38.974Z,9.07
2023-03-06T14:07:25.928Z,8.90
2023-03-06T14:10:12.728Z,9.15
2023-03-06T14:12:44.566Z,8.90
2023-03-06T14:15:20.177Z,8.65
2023-03-06T14:17:57.491Z,8.93
2023-03-06T14:20:33.413Z,8.57
2023-03-06T14:23:27.657Z,8.75
2023-03-06T14:26:00.118Z,7.93
2023-03-06T14:28:30.035Z,8.88
2023-03-06T14:30:59.903Z,8.38
2023-03-06T14:33:32.661Z,8.07
2023-03-06T14:36:04.290Z,7.70
2023-03-06T14:38:37.467Z,8.95
2023-03-06T14:41:06.818Z,8.35
2023-03-06T14:43:35.077Z,7.72
2023-03-06T14:46:05.131Z,9.38
2023-03-06T14:48:42.386Z,8.65
2023-03-06T14:51:18.083Z,8.40
2023-03-06T14:53:48.547Z,8.85
2023-03-06T14:56:20.124Z,9.55
2023-03-06T14:58:54.773Z,9.32
2023-03-06T15:01:33.220Z,8.43
2023-03-06T15:04:03.016Z,9.10
2023-03-06T15:06:36.440Z,7.85
2023-03-06T15:09:10.236Z,7.55
2023-03-06T15:11:59.346Z,8.35
2023-03-06T15:14:36.949Z,9.45
2023-03-06T15:17:29.901Z,8.20
2023-03-06T15:19:59.764Z,8.35
2023-03-06T15:22:32.831Z,8.25
2023-03-06T15:25:30.080Z,7.78
2023-03-06T15:27:59.927Z,8.73
2023-03-06T15:30:31.126Z,8.05
2023-03-06T15:33:21.210Z,8.80
2023-03-06T15:35:55.053Z,8.25
2023-03-06T15:38:31.101Z,8.40
2023-03-06T15:41:01.261Z,8.10
2023-03-06T15:43:30.960Z,8.80
2023-03-06T15:46:01.630Z,15.68
2023-03-06T15:48:29.831Z,11.40
2023-03-06T15:50:58.068Z,43.60
2023-03-06T15:53:28.473Z,20.90
2023-03-06T15:55:57.471Z,75.47
2023-03-06T15:58:26.944Z,252.32
2023-03-06T16:00:55.114Z,94.10
2023-03-06T16:03:23.216Z,34.60
2023-03-06T16:05:51.250Z,29.70
2023-03-06T16:08:19.350Z,25.80
2023-03-06T16:10:50.592Z,26.83
2023-03-06T16:13:24.845Z,18.25
2023-03-06T16:15:53.242Z,20.20
2023-03-06T16:18:21.519Z,16.73
2023-03-06T16:20:50.944Z,20.17
2023-03-06T16:23:19.135Z,24.17
2023-03-06T16:25:50.529Z,26.45
2023-03-06T16:28:18.943Z,21.63
2023-03-06T16:30:47.082Z,22.15
2023-03-06T16:33:15.695Z,15.60
2023-03-06T16:35:46.596Z,29.83
2023-03-06T16:38:15.798Z,23.52
2023-03-06T16:40:43.758Z,22.35
2023-03-06T16:43:16.158Z,28.17
2023-03-06T16:45:44.794Z,40.47
2023-03-06T16:48:17.074Z,30.83
2023-03-06T16:50:46.152Z,19.70
2023-03-06T16:53:14.193Z,23.13
2023-03-06T16:55:42.762Z,21.75
2023-03-06T16:58:12.320Z,16.45
2023-03-06T17:00:40.448Z,15.98
2023-03-06T17:03:08.729Z,19.98
2023-03-06T17:05:39.961Z,54.42
2023-03-06T17:08:08.040Z,36.22
2023-03-06T17:10:36.264Z,38.35
2023-03-06T17:13:05.170Z,39.20
2023-03-06T17:15:34.661Z,35.30
2023-03-06T17:18:02.784Z,35.60
2023-03-06T17:20:30.923Z,31.23
2023-03-06T17:22:59.054Z,30.95
2023-03-06T17:25:26.979Z,31.75
2023-03-06T17:27:55.064Z,28.55
2023-03-06T17:30:23.364Z,35.40
2023-03-06T17:32:53.745Z,25.48
2023-03-06T17:35:21.797Z,37.33
2023-03-06T17:37:49.924Z,29.00
2023-03-06T17:40:18.166Z,31.75
2023-03-06T17:42:46.151Z,27.50
2023-03-06T17:45:14.137Z,32.67
2023-03-06T17:47:42.253Z,45.55
2023-03-06T17:50:12.933Z,43.42
2023-03-06T17:52:41.136Z,40.60
2023-03-06T17:55:10.072Z,44.40
2023-03-06T17:57:38.001Z,55.45
2023-03-06T18:00:07.699Z,65.82
2023-03-06T18:02:35.809Z,49.22
2023-03-06T18:05:06.402Z,30.27
2023-03-06T18:07:35.958Z,26.48
2023-03-06T18:10:04.445Z,15.07
2023-03-06T18:12:32.742Z,14.77
2023-03-06T18:15:00.808Z,16.05
2023-03-06T18:17:28.876Z,20.20
2023-03-06T18:19:57.176Z,18.55
2023-03-06T18:22:25.280Z,16.98
2023-03-06T18:24:54.659Z,23.45
2023-03-06T18:27:22.833Z,122.85
2023-03-06T18:29:52.217Z,42.45
2023-03-06T18:32:20.201Z,30.38
2023-03-06T18:34:50.682Z,31.48
2023-03-06T18:37:18.863Z,27.55
2023-03-06T18:39:47.129Z,23.75
2023-03-06T18:42:16.640Z,36.78
2023-03-06T18:44:47.779Z,30.50
2023-03-06T18:47:16.273Z,31.88
2023-03-06T18:49:46.004Z,31.30
2023-03-06T18:52:14.028Z,33.85
2023-03-06T18:54:42.296Z,33.45
2023-03-06T18:57:11.386Z,37.92
2023-03-06T18:59:40.876Z,54.13
2023-03-06T19:02:08.955Z,65.60
2023-03-06T19:04:38.034Z,44.15
2023-03-06T19:07:06.235Z,73.68
2023-03-06T19:09:34.581Z,100.18
2023-03-06T19:12:03.765Z,90.82
2023-03-06T19:14:31.867Z,61.47
2023-03-06T19:17:01.956Z,49.42
2023-03-06T19:19:30.060Z,52.25
2023-03-06T19:21:59.564Z,52.72
2023-03-06T19:24:27.957Z,51.70
2023-03-06T19:26:55.961Z,46.53
2023-03-06T19:29:23.997Z,51.67
2023-03-06T19:31:52.276Z,46.03
2023-03-06T19:34:21.783Z,40.47
2023-03-06T19:36:53.608Z,39.25
2023-03-06T19:39:21.551Z,37.55
2023-03-06T19:41:49.547Z,35.58
2023-03-06T19:44:17.897Z,35.33
2023-03-06T19:46:45.940Z,43.00
2023-03-06T19:49:16.911Z,50.42
2023-03-06T19:51:46.408Z,47.78
2023-03-06T19:54:15.361Z,47.80
2023-03-06T19:56:43.827Z,50.15
2023-03-06T19:59:11.943Z,53.78
2023-03-06T20:01:40.458Z,51.30
2023-03-06T20:04:08.547Z,51.28
2023-03-06T20:06:37.757Z,51.75
2023-03-06T20:09:09.632Z,50.22
2023-03-06T20:11:37.834Z,51.17
2023-03-06T20:14:08.026Z,65.72
2023-03-06T20:16:37.281Z,47.38
2023-03-06T20:19:06.487Z,54.67
2023-03-06T20:21:37.657Z,54.38
2023-03-06T20:24:09.282Z,55.13
2023-03-06T20:26:38.633Z,50.90
2023-03-06T20:29:06.717Z,51.42
2023-03-06T20:31:34.754Z,48.38
2023-03-06T20:34:03.291Z,48.17
2023-03-06T20:36:35.527Z,46.90
2023-03-06T20:39:08.889Z,46.67
2023-03-06T20:41:37.268Z,52.58
2023-03-06T20:44:07.655Z,56.45
2023-03-06T20:46:36.587Z,56.58
2023-03-06T20:49:05.276Z,55.15
2023-03-06T20:51:36.257Z,52.35
2023-03-06T20:54:04.708Z,52.33
2023-03-06T20:56:36.346Z,55.03
2023-03-06T20:59:05.793Z,55.63
2023-03-06T21:01:36.264Z,59.17
2023-03-06T21:04:05.310Z,55.67
2023-03-06T21:06:34.081Z,49.67
2023-03-06T21:09:02.626Z,59.67
2023-03-06T21:11:30.838Z,77.63
2023-03-06T21:14:01.050Z,66.95
2023-03-06T21:16:30.356Z,63.67
2023-03-06T21:19:00.501Z,61.83
2023-03-06T21:21:31.276Z,65.55
2023-03-06T21:23:59.893Z,66.53
2023-03-06T21:26:30.137Z,66.85
2023-03-06T21:28:59.562Z,75.07
2023-03-06T21:31:28.403Z,67.03
2023-03-06T21:33:56.887Z,64.22
2023-03-06T21:36:25.072Z,46.28
2023-03-06T21:38:54.540Z,43.67
2023-03-06T21:41:25.088Z,36.97
2023-03-06T21:43:56.566Z,38.05
2023-03-06T21:46:27.121Z,34.65
2023-03-06T21:48:55.522Z,35.28
2023-03-06T21:51:24.757Z,33.95
2023-03-06T21:53:53.918Z,38.47
2023-03-06T21:56:25.047Z,38.60
2023-03-06T21:58:53.601Z,40.42
2023-03-06T22:01:23.810Z,39.03
2023-03-06T22:03:53.713Z,41.13
2023-03-06T22:06:25.014Z,43.05
2023-03-06T22:08:53.665Z,42.17
2023-03-06T22:11:23.483Z,44.17
2023-03-06T22:13:53.314Z,45.50
2023-03-06T22:16:21.637Z,47.03
2023-03-06T22:18:51.744Z,44.88
2023-03-06T22:21:23.352Z,46.08
2023-03-06T22:23:52.048Z,45.40
2023-03-06T22:26:20.838Z,49.40
2023-03-06T22:28:48.946Z,47.60
2023-03-06T22:31:18.739Z,47.33
2023-03-06T22:33:47.454Z,44.58
2023-03-06T22:36:16.939Z,41.30
2023-03-06T22:38:48.117Z,34.47
2023-03-06T22:41:20.262Z,34.75
2023-03-06T22:43:48.666Z,32.00
2023-03-06T22:46:18.561Z,33.38
2023-03-06T22:48:46.955Z,35.85
2023-03-06T22:51:17.190Z,34.80
2023-03-06T22:53:46.970Z,36.83
2023-03-06T22:56:17.176Z,38.05
2023-03-06T22:58:45.781Z,37.97
2023-03-06T23:01:16.088Z,36.20
2023-03-06T23:03:45.906Z,37.83
2023-03-06T23:06:15.751Z,37.65
2023-03-06T23:08:44.607Z,37.03
2023-03-06T23:11:17.227Z,37.70
2023-03-06T23:13:45.756Z,40.47
2023-03-06T23:16:14.365Z,42.78
2023-03-06T23:18:42.932Z,44.47
2023-03-06T23:21:13.253Z,43.75
2023-03-06T23:23:41.799Z,40.95
2023-03-06T23:26:11.905Z,39.80
2023-03-06T23:28:41.665Z,41.03
2023-03-06T23:31:10.570Z,39.25
2023-03-06T23:33:39.797Z,37.25
2023-03-06T23:36:09.896Z,35.53
2023-03-06T23:38:38.306Z,36.55
2023-03-06T23:41:09.091Z,36.40
2023-03-06T23:43:37.498Z,35.30
2023-03-06T23:46:08.264Z,33.53
2023-03-06T23:48:37.323Z,33.33
2023-03-06T23:51:07.581Z,32.60
2023-03-06T23:53:36.250Z,31.08
2023-03-06T23:56:06.455Z,26.77
2023-03-06T23:58:34.661Z,24.73
